createdAt,value
2022-10-01T00:00:02.059Z,71.81
2022-10-01T00:02:03.640Z,71.72
2022-10-01T00:04:05.083Z,71.59
2022-10-01T00:06:06.504Z,71.42
2022-10-01T00:08:07.996Z,71.62
2022-10-01T00:10:11.061Z,71.39
2022-10-01T00:12:15.766Z,71.25
2022-10-01T00:14:17.403Z,71.37
2022-10-01T00:16:22.568Z,71.23
2022-10-01T00:18:24.052Z,71.26
2022-10-01T00:20:25.504Z,71.40
2022-10-01T00:22:26.931Z,71.69
2022-10-01T00:24:28.472Z,71.67
2022-10-01T00:26:33.039Z,71.87
2022-10-01T00:28:34.492Z,71.55
2022-10-01T00:30:40.168Z,71.67
2022-10-01T00:32:41.943Z,71.43
2022-10-01T00:34:43.539Z,72.10
2022-10-01T00:36:44.976Z,71.58
2022-10-01T00:38:47.935Z,71.95
2022-10-01T00:40:49.535Z,71.98
2022-10-01T00:42:51.017Z,71.70
2022-10-01T00:44:54.073Z,71.65
2022-10-01T00:47:02.199Z,71.44
2022-10-01T00:49:16.324Z,71.76
2022-10-01T00:51:18.330Z,71.85
2022-10-01T00:53:22.167Z,71.61
2022-10-01T00:55:28.475Z,71.81
2022-10-01T00:57:30.922Z,71.69
2022-10-01T00:59:33.811Z,71.48
2022-10-01T01:01:37.302Z,71.23
2022-10-01T01:03:39.076Z,71.61
2022-10-01T01:05:40.566Z,71.41
2022-10-01T01:07:46.313Z,71.36
2022-10-01T01:09:51.348Z,71.39
2022-10-01T01:12:01.364Z,71.26
2022-10-01T01:14:15.050Z,71.23
2022-10-01T01:16:29.196Z,71.15
2022-10-01T01:18:37.215Z,71.17
2022-10-01T01:20:51.309Z,71.46
2022-10-01T01:23:11.125Z,71.03
2022-10-01T01:25:22.289Z,70.86
2022-10-01T01:27:27.248Z,71.17
2022-10-01T01:29:40.136Z,71.20
2022-10-01T01:31:46.403Z,71.19
2022-10-01T01:33:51.858Z,71.13
2022-10-01T01:35:59.224Z,71.13
2022-10-01T01:38:06.471Z,71.20
2022-10-01T01:40:11.359Z,71.50
2022-10-01T01:42:29.137Z,72.01
2022-10-01T01:44:36.520Z,71.58
2022-10-01T01:46:43.437Z,72.13
2022-10-01T01:48:49.483Z,72.15
2022-10-01T01:51:14.570Z,72.82
2022-10-01T01:53:16.252Z,73.08
2022-10-01T01:55:19.080Z,73.49
2022-10-01T01:57:21.108Z,73.94
2022-10-01T01:59:22.799Z,74.77
2022-10-01T02:01:43.819Z,74.92
2022-10-01T02:03:45.295Z,76.00
2022-10-01T02:06:02.256Z,76.63
2022-10-01T02:08:23.373Z,77.40
2022-10-01T02:10:55.800Z,77.41
2022-10-01T02:13:28.979Z,78.12
2022-10-01T02:15:45.425Z,78.50
2022-10-01T02:18:17.680Z,79.00
2022-10-01T02:20:36.043Z,79.16
2022-10-01T02:23:06.617Z,79.38
2022-10-01T02:25:10.466Z,80.14
2022-10-01T02:27:20.880Z,80.53
2022-10-01T02:29:23.943Z,80.70
2022-10-01T02:31:28.242Z,80.70
2022-10-01T02:33:32.825Z,80.84
2022-10-01T02:35:36.927Z,81.49
2022-10-01T02:37:40.967Z,81.42
2022-10-01T02:39:44.317Z,81.79
2022-10-01T02:41:50.028Z,81.76
2022-10-01T02:43:51.687Z,82.00
2022-10-01T02:45:58.581Z,82.91
2022-10-01T02:48:04.198Z,82.89
2022-10-01T02:50:07.874Z,83.17
2022-10-01T02:52:16.976Z,83.34
2022-10-01T02:54:27.604Z,83.70
2022-10-01T02:56:48.981Z,83.52
2022-10-01T02:58:52.449Z,83.91
2022-10-01T03:00:54.114Z,84.42
2022-10-01T03:02:55.700Z,84.93
2022-10-01T03:04:57.915Z,84.95
2022-10-01T03:07:03.730Z,85.06
2022-10-01T03:09:08.676Z,85.40
2022-10-01T03:11:10.436Z,85.82
2022-10-01T03:13:11.862Z,86.42
2022-10-01T03:15:15.283Z,86.27
2022-10-01T03:17:17.127Z,86.43
2022-10-01T03:19:18.568Z,86.64
2022-10-01T03:21:20.031Z,87.10
2022-10-01T03:23:21.502Z,87.00
2022-10-01T03:25:22.937Z,87.14
2022-10-01T03:27:24.383Z,87.68
2022-10-01T03:29:25.999Z,88.33
2022-10-01T03:31:27.594Z,88.48
2022-10-01T03:33:29.010Z,88.72
2022-10-01T03:35:31.179Z,88.61
2022-10-01T03:37:32.671Z,89.03
2022-10-01T03:39:34.437Z,89.01
2022-10-01T03:41:36.979Z,89.62
2022-10-01T03:43:38.485Z,90.43
2022-10-01T03:45:40.003Z,90.72
2022-10-01T03:47:41.504Z,90.45
2022-10-01T03:49:42.917Z,90.57
2022-10-01T03:51:45.549Z,91.01
2022-10-01T03:53:47.942Z,91.90
2022-10-01T03:55:49.645Z,91.53
2022-10-01T03:57:51.305Z,91.36
2022-10-01T03:59:52.711Z,91.79
2022-10-01T04:01:54.580Z,92.26
2022-10-01T04:03:56.488Z,92.92
2022-10-01T04:05:58.006Z,93.49
2022-10-01T04:07:59.707Z,93.38
2022-10-01T04:10:01.231Z,93.72
2022-10-01T04:12:03.321Z,94.09
2022-10-01T04:14:05.119Z,93.97
2022-10-01T04:16:07.241Z,94.66
2022-10-01T04:18:09.225Z,94.17
2022-10-01T04:20:10.684Z,94.59
2022-10-01T04:22:12.119Z,94.80
2022-10-01T04:24:13.559Z,94.97
2022-10-01T04:26:15.014Z,95.15
2022-10-01T04:28:16.945Z,95.10
2022-10-01T04:30:18.424Z,95.88
2022-10-01T04:32:21.490Z,96.03
2022-10-01T04:34:42.865Z,95.46
2022-10-01T04:36:44.310Z,96.32
2022-10-01T04:38:45.770Z,96.39
2022-10-01T04:40:47.564Z,96.45
2022-10-01T04:42:48.980Z,97.07
2022-10-01T04:44:50.850Z,97.13
2022-10-01T04:46:52.361Z,96.80
2022-10-01T04:48:53.811Z,97.35
2022-10-01T04:50:55.219Z,97.66
2022-10-01T04:52:56.910Z,97.45
2022-10-01T04:54:58.342Z,97.56
2022-10-01T04:56:59.739Z,97.26
2022-10-01T04:59:01.217Z,97.73
2022-10-01T05:01:03.093Z,97.91
2022-10-01T05:03:04.604Z,97.42
2022-10-01T05:05:07.793Z,98.04
2022-10-01T05:07:09.807Z,97.93
2022-10-01T05:09:11.230Z,98.28
2022-10-01T05:11:12.694Z,98.17
2022-10-01T05:13:14.816Z,98.04
2022-10-01T05:15:17.649Z,98.67
2022-10-01T05:17:19.855Z,97.94
2022-10-01T05:19:25.222Z,98.25
2022-10-01T05:21:28.921Z,98.28
2022-10-01T05:23:30.344Z,97.75
2022-10-01T05:25:31.840Z,97.17
2022-10-01T05:27:37.682Z,97.65
2022-10-01T05:29:40.896Z,97.75
2022-10-01T05:31:44.360Z,97.30
2022-10-01T05:33:45.918Z,97.33
2022-10-01T05:35:47.846Z,97.70
2022-10-01T05:37:53.289Z,97.67
2022-10-01T05:39:54.740Z,97.56
2022-10-01T05:41:57.818Z,97.47
2022-10-01T05:43:59.303Z,97.49
2022-10-01T05:46:02.048Z,97.40
2022-10-01T05:48:06.486Z,97.46
2022-10-01T05:50:08.963Z,98.11
2022-10-01T05:52:11.701Z,98.06
2022-10-01T05:54:13.843Z,97.90
2022-10-01T05:56:15.317Z,97.98
2022-10-01T05:58:17.004Z,98.71
2022-10-01T06:00:18.748Z,98.89
2022-10-01T06:02:20.195Z,98.43
2022-10-01T06:04:21.720Z,98.70
2022-10-01T06:06:24.073Z,98.62
2022-10-01T06:08:28.740Z,98.97
2022-10-01T06:10:30.320Z,99.07
2022-10-01T06:12:34.129Z,98.40
2022-10-01T06:14:35.727Z,98.97
2022-10-01T06:16:37.217Z,98.96
2022-10-01T06:18:38.762Z,98.88
2022-10-01T06:20:41.004Z,99.53
2022-10-01T06:22:43.742Z,99.46
2022-10-01T06:24:45.238Z,99.43
2022-10-01T06:26:48.455Z,100.00
2022-10-01T06:28:50.784Z,100.00
2022-10-01T06:30:52.342Z,100.00
2022-10-01T06:33:02.755Z,100.00
2022-10-01T06:35:04.444Z,100.00
2022-10-01T06:37:05.912Z,100.00
2022-10-01T06:39:07.363Z,100.00
2022-10-01T06:41:09.658Z,100.00
2022-10-01T06:43:11.131Z,100.00
2022-10-01T06:45:12.683Z,100.00
2022-10-01T06:47:14.089Z,100.00
2022-10-01T06:49:15.720Z,100.00
2022-10-01T06:51:37.166Z,100.00
2022-10-01T06:53:38.670Z,100.00
2022-10-01T06:55:40.790Z,100.00
2022-10-01T06:57:42.245Z,100.00
2022-10-01T06:59:43.674Z,100.00
2022-10-01T07:01:45.152Z,100.00
2022-10-01T07:03:46.682Z,100.00
2022-10-01T07:05:49.020Z,100.00
2022-10-01T07:07:51.253Z,100.00
2022-10-01T07:09:52.996Z,100.00
2022-10-01T07:11:54.567Z,100.00
2022-10-01T07:13:57.566Z,100.00
2022-10-01T07:15:59.026Z,100.00
2022-10-01T07:18:01.224Z,100.00
2022-10-01T07:20:02.781Z,100.00
2022-10-01T07:22:04.189Z,100.00
2022-10-01T07:24:05.790Z,100.00
2022-10-01T07:26:09.152Z,100.00
2022-10-01T07:28:20.124Z,100.00
2022-10-01T07:30:21.891Z,100.00
2022-10-01T07:32:23.296Z,100.00
2022-10-01T07:34:26.164Z,100.00
2022-10-01T07:36:27.778Z,100.00
2022-10-01T07:38:29.887Z,100.00
2022-10-01T07:40:31.326Z,100.00
2022-10-01T07:42:32.740Z,100.00
2022-10-01T07:44:34.273Z,100.00
2022-10-01T07:46:36.181Z,100.00
2022-10-01T07:48:37.745Z,100.00
2022-10-01T07:50:39.200Z,100.00
2022-10-01T07:52:40.641Z,100.00
2022-10-01T07:54:42.088Z,100.00
2022-10-01T07:56:43.599Z,100.00
2022-10-01T07:58:45.060Z,100.00
2022-10-01T08:00:46.538Z,100.00
2022-10-01T08:02:50.729Z,100.00
2022-10-01T08:05:10.716Z,100.00
2022-10-01T08:07:12.232Z,100.00
2022-10-01T08:09:13.728Z,100.00
2022-10-01T08:11:17.951Z,100.00
2022-10-01T08:13:20.424Z,100.00
2022-10-01T08:15:21.846Z,100.00
2022-10-01T08:17:28.592Z,100.00
2022-10-01T08:19:30.869Z,100.00
2022-10-01T08:21:32.736Z,100.00
2022-10-01T08:23:34.588Z,100.00
2022-10-01T08:25:37.039Z,100.00
2022-10-01T08:27:38.506Z,100.00
2022-10-01T08:29:43.265Z,100.00
2022-10-01T08:31:44.760Z,100.00
2022-10-01T08:33:46.302Z,100.00
2022-10-01T08:35:48.103Z,100.00
2022-10-01T08:37:49.887Z,100.00
2022-10-01T08:39:51.362Z,100.00
2022-10-01T08:42:29.777Z,100.00
2022-10-01T08:44:37.372Z,100.00
2022-10-01T08:46:38.917Z,100.00
2022-10-01T08:48:56.853Z,100.00
2022-10-01T08:51:10.118Z,100.00
2022-10-01T08:53:16.600Z,100.00
2022-10-01T08:55:23.395Z,100.00
2022-10-01T08:57:29.891Z,100.00
2022-10-01T08:59:43.589Z,100.00
2022-10-01T09:01:45.262Z,100.00
2022-10-01T09:03:46.789Z,100.00
2022-10-01T09:06:19.171Z,100.00
2022-10-01T09:08:43.883Z,100.00
2022-10-01T09:10:56.449Z,100.00
2022-10-01T09:13:21.986Z,100.00
2022-10-01T09:15:39.865Z,100.00
2022-10-01T09:18:10.039Z,100.00
2022-10-01T09:20:29.558Z,100.00
2022-10-01T09:22:44.426Z,100.00
2022-10-01T09:25:03.654Z,100.00
2022-10-01T09:27:15.770Z,100.00
2022-10-01T09:29:29.962Z,100.00
2022-10-01T09:31:39.630Z,100.00
2022-10-01T09:33:44.206Z,100.00
2022-10-01T09:35:56.547Z,100.00
2022-10-01T09:38:03.597Z,100.00
2022-10-01T09:40:21.260Z,100.00
2022-10-01T09:42:26.400Z,100.00
2022-10-01T09:44:30.886Z,100.00
2022-10-01T09:46:32.370Z,100.00
2022-10-01T09:48:59.137Z,100.00
2022-10-01T09:51:15.464Z,100.00
2022-10-01T09:53:22.145Z,100.00
2022-10-01T09:55:43.253Z,100.00
2022-10-01T09:58:24.341Z,100.00
2022-10-01T10:00:27.338Z,100.00
2022-10-01T10:02:33.250Z,99.79
2022-10-01T10:04:35.785Z,99.64
2022-10-01T10:06:38.814Z,99.09
2022-10-01T10:08:45.457Z,99.20
2022-10-01T10:11:11.709Z,98.23
2022-10-01T10:13:26.552Z,98.67
2022-10-01T10:15:31.285Z,98.52
2022-10-01T10:17:37.764Z,98.28
2022-10-01T10:19:41.227Z,98.39
2022-10-01T10:21:52.552Z,97.66
2022-10-01T10:23:59.498Z,98.13
2022-10-01T10:26:06.357Z,97.29
2022-10-01T10:28:23.538Z,96.94
2022-10-01T10:30:26.475Z,96.39
2022-10-01T10:32:28.644Z,95.45
2022-10-01T10:34:35.792Z,95.24
2022-10-01T10:36:38.283Z,94.97
2022-10-01T10:38:39.924Z,93.72
2022-10-01T10:40:44.014Z,92.27
2022-10-01T10:42:51.162Z,89.83
2022-10-01T10:44:55.703Z,88.95
2022-10-01T10:47:00.560Z,87.72
2022-10-01T10:49:08.388Z,86.21
2022-10-01T10:51:10.603Z,85.84
2022-10-01T10:53:25.992Z,85.91
2022-10-01T10:55:31.484Z,86.76
2022-10-01T10:57:34.761Z,86.77
2022-10-01T10:59:36.217Z,86.33
2022-10-01T11:01:41.758Z,85.88
2022-10-01T11:03:56.215Z,86.25
2022-10-01T11:06:08.876Z,86.59
2022-10-01T11:08:21.818Z,85.48
2022-10-01T11:10:52.493Z,84.18
2022-10-01T11:13:27.872Z,81.96
2022-10-01T11:16:20.436Z,79.15
2022-10-01T11:18:41.953Z,75.12
2022-10-01T11:21:17.746Z,72.65
2022-10-01T11:23:22.120Z,71.58
2022-10-01T11:25:33.537Z,70.78
2022-10-01T11:27:36.490Z,68.91
2022-10-01T11:30:12.176Z,69.81
2022-10-01T11:32:34.050Z,69.96
2022-10-01T11:35:00.128Z,70.48
2022-10-01T11:37:13.821Z,70.09
2022-10-01T11:39:18.533Z,69.91
2022-10-01T11:41:28.995Z,69.96
2022-10-01T11:43:40.471Z,71.01
2022-10-01T11:45:46.102Z,72.16
2022-10-01T11:47:53.759Z,73.10
2022-10-01T11:50:27.348Z,74.75
2022-10-01T11:52:42.890Z,73.46
2022-10-01T11:55:30.035Z,71.93
2022-10-01T11:57:50.293Z,70.96
2022-10-01T12:00:04.305Z,71.45
2022-10-01T12:02:32.581Z,71.31
2022-10-01T12:04:43.341Z,71.97
2022-10-01T12:07:00.857Z,72.86
2022-10-01T12:09:14.592Z,73.42
2022-10-01T12:11:26.871Z,73.95
2022-10-01T12:13:33.519Z,74.19
2022-10-01T12:15:57.213Z,74.84
2022-10-01T12:18:31.857Z,75.68
2022-10-01T12:20:42.775Z,75.88
2022-10-01T12:22:45.934Z,76.56
2022-10-01T12:24:50.140Z,76.75
2022-10-01T12:26:58.067Z,77.23
2022-10-01T12:29:13.169Z,77.66
2022-10-01T12:31:57.707Z,77.94
2022-10-01T12:34:07.924Z,78.40
2022-10-01T12:36:36.563Z,78.79
2022-10-01T12:38:55.471Z,79.36
2022-10-01T12:41:15.093Z,80.03
2022-10-01T12:43:54.228Z,80.60
2022-10-01T12:46:04.955Z,80.46
2022-10-01T12:48:24.717Z,78.92
2022-10-01T12:50:45.098Z,80.30
2022-10-01T12:53:08.889Z,80.47
2022-10-01T12:55:34.271Z,80.75
2022-10-01T12:57:41.614Z,78.66
2022-10-01T13:00:24.977Z,78.69
2022-10-01T13:02:55.128Z,79.39
2022-10-01T13:05:05.090Z,79.39
2022-10-01T13:07:31.615Z,79.23
2022-10-01T13:09:48.920Z,78.80
2022-10-01T13:12:15.006Z,78.96
2022-10-01T13:14:18.853Z,79.32
2022-10-01T13:16:24.315Z,79.90
2022-10-01T13:18:36.571Z,80.05
2022-10-01T13:21:00.190Z,79.96
2022-10-01T13:23:05.412Z,77.52
2022-10-01T13:25:18.936Z,77.85
2022-10-01T13:27:28.340Z,77.72
2022-10-01T13:29:55.302Z,77.18
2022-10-01T13:31:58.267Z,76.92
2022-10-01T13:34:01.395Z,77.38
2022-10-01T13:36:08.213Z,76.34
2022-10-01T13:38:17.510Z,76.55
2022-10-01T13:40:23.983Z,75.90
2022-10-01T13:42:28.230Z,76.25
2022-10-01T13:44:35.608Z,75.49
2022-10-01T13:46:52.066Z,76.29
2022-10-01T13:48:55.137Z,76.16
2022-10-01T13:51:04.989Z,76.58
2022-10-01T13:53:20.596Z,75.21
2022-10-01T13:55:30.621Z,75.43
2022-10-01T13:57:37.704Z,75.48
2022-10-01T13:59:39.219Z,75.58
2022-10-01T14:01:42.198Z,75.31
2022-10-01T14:03:59.844Z,74.59
2022-10-01T14:06:03.977Z,74.49
2022-10-01T14:08:27.964Z,74.15
2022-10-01T14:10:36.221Z,74.38
2022-10-01T14:13:02.451Z,74.73
2022-10-01T14:15:34.533Z,74.20
2022-10-01T14:17:37.093Z,74.51
2022-10-01T14:19:45.021Z,75.03
2022-10-01T14:22:02.065Z,75.32
2022-10-01T14:24:22.002Z,74.85
2022-10-01T14:26:38.648Z,74.96
2022-10-01T14:28:59.089Z,74.90
2022-10-01T14:31:26.051Z,74.77
2022-10-01T14:34:04.207Z,75.54
2022-10-01T14:36:40.006Z,74.60
2022-10-01T14:38:41.506Z,75.15
2022-10-01T14:40:45.882Z,75.56
2022-10-01T14:43:01.027Z,75.56
2022-10-01T14:45:02.686Z,75.46
2022-10-01T14:47:19.495Z,73.94
2022-10-01T14:49:25.297Z,74.08
2022-10-01T14:51:30.500Z,73.95
2022-10-01T14:53:41.936Z,73.92
2022-10-01T14:55:43.748Z,74.21
2022-10-01T14:57:49.486Z,74.70
2022-10-01T14:59:51.195Z,74.87
2022-10-01T15:01:59.389Z,74.97
2022-10-01T15:04:01.110Z,74.90
2022-10-01T15:06:04.951Z,74.12
2022-10-01T15:08:38.049Z,73.58
2022-10-01T15:10:53.394Z,73.49
2022-10-01T15:12:55.651Z,72.08
2022-10-01T15:14:57.224Z,72.18
2022-10-01T15:17:06.572Z,72.47
2022-10-01T15:19:13.823Z,71.90
2022-10-01T15:21:20.022Z,72.10
2022-10-01T15:23:23.812Z,72.10
2022-10-01T15:25:29.055Z,71.59
2022-10-01T15:27:30.873Z,71.65
2022-10-01T15:29:32.400Z,72.04
2022-10-01T15:31:34.641Z,72.25
2022-10-01T15:33:40.307Z,72.84
2022-10-01T15:35:42.434Z,73.22
2022-10-01T15:37:50.089Z,73.17
2022-10-01T15:39:52.810Z,73.57
2022-10-01T15:41:55.473Z,73.61
2022-10-01T15:44:03.615Z,73.75
2022-10-01T15:46:05.023Z,73.90
2022-10-01T15:48:26.981Z,73.82
2022-10-01T15:50:32.398Z,74.24
2022-10-01T15:52:54.604Z,74.71
2022-10-01T15:55:00.402Z,75.12
2022-10-01T15:57:03.537Z,75.37
2022-10-01T15:59:18.401Z,75.52
2022-10-01T16:01:29.799Z,75.18
2022-10-01T16:03:38.824Z,75.15
2022-10-01T16:05:47.135Z,74.44
2022-10-01T16:07:56.083Z,74.03
2022-10-01T16:09:59.632Z,73.50
2022-10-01T16:12:24.048Z,73.29
2022-10-01T16:14:43.777Z,73.35
2022-10-01T16:16:45.383Z,73.79
2022-10-01T16:18:57.164Z,73.41
2022-10-01T16:20:58.738Z,73.31
2022-10-01T16:23:32.953Z,73.46
2022-10-01T16:25:44.214Z,73.16
2022-10-01T16:27:47.082Z,73.66
2022-10-01T16:30:05.708Z,74.31
2022-10-01T16:32:12.917Z,74.74
2022-10-01T16:34:17.571Z,75.11
2022-10-01T16:36:20.720Z,75.17
2022-10-01T16:38:22.137Z,75.28
2022-10-01T16:40:26.026Z,76.24
2022-10-01T16:42:27.507Z,76.47
2022-10-01T16:44:28.980Z,76.94
2022-10-01T16:46:31.170Z,77.12
2022-10-01T16:48:32.690Z,77.14
2022-10-01T16:50:34.611Z,77.61
2022-10-01T16:52:37.426Z,77.25
2022-10-01T16:54:39.339Z,77.46
2022-10-01T16:56:41.312Z,77.21
2022-10-01T16:58:46.019Z,77.58
2022-10-01T17:00:47.596Z,77.70
2022-10-01T17:02:49.231Z,77.56
2022-10-01T17:04:50.694Z,77.35
2022-10-01T17:06:53.774Z,77.14
2022-10-01T17:08:55.224Z,77.44
2022-10-01T17:11:00.173Z,77.49
2022-10-01T17:13:03.481Z,77.54
2022-10-01T17:15:06.018Z,77.20
2022-10-01T17:17:07.478Z,77.49
2022-10-01T17:19:10.391Z,77.79
2022-10-01T17:21:11.993Z,78.09
2022-10-01T17:23:15.776Z,78.15
2022-10-01T17:25:22.779Z,77.78
2022-10-01T17:27:24.265Z,77.93
2022-10-01T17:29:26.696Z,78.16
2022-10-01T17:31:28.564Z,78.72
2022-10-01T17:33:30.496Z,78.74
2022-10-01T17:35:32.049Z,78.69
2022-10-01T17:37:34.370Z,78.85
2022-10-01T17:39:36.132Z,78.79
2022-10-01T17:41:37.649Z,78.83
2022-10-01T17:43:47.798Z,79.35
2022-10-01T17:45:55.827Z,79.25
2022-10-01T17:47:57.416Z,79.41
2022-10-01T17:49:58.942Z,79.87
2022-10-01T17:52:00.466Z,79.88
2022-10-01T17:54:03.255Z,80.21
2022-10-01T17:56:23.748Z,80.85
2022-10-01T17:58:26.697Z,81.16
2022-10-01T18:00:28.230Z,81.42
2022-10-01T18:02:41.470Z,81.79
2022-10-01T18:04:43.503Z,82.01
2022-10-01T18:06:46.574Z,82.29
2022-10-01T18:08:56.569Z,82.55
2022-10-01T18:11:09.501Z,82.64
2022-10-01T18:13:10.932Z,83.15
2022-10-01T18:15:13.778Z,83.34
2022-10-01T18:17:15.501Z,82.65
2022-10-01T18:21:38.527Z,82.73
2022-10-01T18:23:43.329Z,82.93
2022-10-01T18:25:44.783Z,83.05
2022-10-01T18:27:50.084Z,83.72
2022-10-01T18:29:51.755Z,83.85
2022-10-01T18:31:58.763Z,83.94
2022-10-01T18:34:03.066Z,84.23
2022-10-01T18:36:17.626Z,84.20
2022-10-01T18:38:29.665Z,84.18
2022-10-01T18:40:39.954Z,84.74
2022-10-01T18:42:59.731Z,84.80
2022-10-01T18:45:02.346Z,85.29
2022-10-01T18:47:19.210Z,85.40
2022-10-01T18:49:37.900Z,85.75
2022-10-01T18:52:00.455Z,85.37
2022-10-01T18:54:26.342Z,85.48
2022-10-01T18:56:30.988Z,85.64
2022-10-01T18:58:51.781Z,85.65
2022-10-01T19:01:15.575Z,85.63
2022-10-01T19:03:47.631Z,85.94
2022-10-01T19:06:18.623Z,85.91
2022-10-01T19:08:57.441Z,86.40
2022-10-01T19:11:05.181Z,86.52
2022-10-01T19:13:21.447Z,86.90
2022-10-01T19:15:36.879Z,87.82
2022-10-01T19:17:50.293Z,87.65
2022-10-01T19:19:58.837Z,88.08
2022-10-01T19:22:14.724Z,88.38
2022-10-01T19:24:52.100Z,88.20
2022-10-01T19:27:09.529Z,88.73
2022-10-01T19:29:35.370Z,89.20
2022-10-01T19:31:52.740Z,89.04
2022-10-01T19:34:05.053Z,89.37
2022-10-01T19:36:14.362Z,89.37
2022-10-01T19:38:29.708Z,89.51
2022-10-01T19:40:37.411Z,89.61
2022-10-01T19:42:43.751Z,90.06
2022-10-01T19:44:58.566Z,90.09
2022-10-01T19:47:32.020Z,90.11
2022-10-01T19:49:36.337Z,89.90
2022-10-01T19:51:46.124Z,90.09
2022-10-01T19:53:56.432Z,90.05
2022-10-01T19:56:01.786Z,90.16
2022-10-01T19:58:13.696Z,90.28
2022-10-01T20:00:21.779Z,90.78
2022-10-01T20:02:35.382Z,90.40
2022-10-01T20:04:40.611Z,90.61
2022-10-01T20:06:46.345Z,90.60
2022-10-01T20:08:55.401Z,90.39
2022-10-01T20:11:32.065Z,90.38
2022-10-01T20:13:51.585Z,90.68
2022-10-01T20:16:13.303Z,90.27
2022-10-01T20:18:39.382Z,90.04
2022-10-01T20:21:02.868Z,89.95
2022-10-01T20:23:52.675Z,90.29
2022-10-01T20:26:26.443Z,90.03
2022-10-01T20:28:31.500Z,89.95
2022-10-01T20:30:48.757Z,89.92
2022-10-01T20:33:10.587Z,90.31
2022-10-01T20:35:33.968Z,89.76
2022-10-01T20:37:47.558Z,90.05
2022-10-01T20:39:55.526Z,89.70
2022-10-01T20:41:58.259Z,89.85
2022-10-01T20:44:02.116Z,89.63
2022-10-01T20:46:14.237Z,89.46
2022-10-01T20:48:38.121Z,89.38
2022-10-01T20:50:47.239Z,89.81
2022-10-01T20:52:54.074Z,89.73
2022-10-01T20:55:12.193Z,89.78
2022-10-01T20:57:25.689Z,90.25
2022-10-01T20:59:33.004Z,89.93
2022-10-01T21:01:42.269Z,90.54
2022-10-01T21:03:49.274Z,90.34
2022-10-01T21:05:56.608Z,90.78
2022-10-01T21:08:10.645Z,90.57
2022-10-01T21:10:48.054Z,90.59
2022-10-01T21:13:19.113Z,91.09
2022-10-01T21:15:23.669Z,91.20
2022-10-01T21:17:46.114Z,90.96
2022-10-01T21:20:05.945Z,90.99
2022-10-01T21:22:13.026Z,91.40
2022-10-01T21:24:39.475Z,91.62
2022-10-01T21:27:08.000Z,91.32
2022-10-01T21:29:19.244Z,91.08
2022-10-01T21:31:20.667Z,91.22
2022-10-01T21:33:29.712Z,91.59
2022-10-01T21:36:03.079Z,91.61
2022-10-01T21:38:32.452Z,91.53
2022-10-01T21:41:08.002Z,91.15
2022-10-01T21:43:35.719Z,91.59
2022-10-01T21:46:06.779Z,91.46
2022-10-01T21:48:29.112Z,91.17
2022-10-01T21:50:42.614Z,90.95
2022-10-01T21:53:02.675Z,90.96
2022-10-01T21:55:34.493Z,91.43
2022-10-01T21:58:06.949Z,91.23
2022-10-01T22:00:23.320Z,91.53
2022-10-01T22:02:36.772Z,91.92
2022-10-01T22:04:56.724Z,91.65
2022-10-01T22:07:28.064Z,91.55
2022-10-01T22:09:43.019Z,91.39
2022-10-01T22:11:51.369Z,91.38
2022-10-01T22:13:57.984Z,91.44
2022-10-01T22:16:07.582Z,91.64
2022-10-01T22:18:22.568Z,91.45
2022-10-01T22:20:29.006Z,91.47
2022-10-01T22:22:35.522Z,91.50
2022-10-01T22:24:43.581Z,91.69
2022-10-01T22:26:54.472Z,91.68
2022-10-01T22:28:56.819Z,91.79
2022-10-01T22:31:00.621Z,91.89
2022-10-01T22:33:20.951Z,92.09
2022-10-01T22:35:35.739Z,91.51
2022-10-01T22:37:42.341Z,91.72
2022-10-01T22:39:50.156Z,91.77
2022-10-01T22:42:11.081Z,91.77
2022-10-01T22:44:19.371Z,91.94
2022-10-01T22:46:51.541Z,91.85
2022-10-01T22:49:03.548Z,91.72
2022-10-01T22:51:26.686Z,91.91
2022-10-01T22:54:02.015Z,90.85
2022-10-01T22:56:03.512Z,90.77
2022-10-01T22:58:22.155Z,90.37
2022-10-01T23:00:24.060Z,91.12
2022-10-01T23:02:38.593Z,91.33
2022-10-01T23:04:39.996Z,91.64
2022-10-01T23:06:49.998Z,91.49
2022-10-01T23:09:13.419Z,91.18
2022-10-01T23:11:41.161Z,91.30
2022-10-01T23:14:15.348Z,91.70
2022-10-01T23:16:23.476Z,91.60
2022-10-01T23:18:52.934Z,91.95
2022-10-01T23:21:18.552Z,92.13
2022-10-01T23:23:32.109Z,91.98
2022-10-01T23:26:07.741Z,91.97
2022-10-01T23:28:09.197Z,91.73
2022-10-01T23:30:16.134Z,91.69
2022-10-01T23:32:20.273Z,91.46
2022-10-01T23:34:43.419Z,91.48
2022-10-01T23:36:53.451Z,91.07
2022-10-01T23:39:07.678Z,91.41
2022-10-01T23:41:18.747Z,91.03
2022-10-01T23:43:43.311Z,90.91
2022-10-01T23:45:55.184Z,90.92
2022-10-01T23:48:15.426Z,90.35
2022-10-01T23:50:26.186Z,90.65
2022-10-01T23:52:50.439Z,90.46
2022-10-01T23:55:17.342Z,90.58
2022-10-01T23:57:29.445Z,90.59
2022-10-01T23:59:46.251Z,91.17
